sensor_id;sensor_type;location;lat;lon;timestamp;P1;durP1;ratioP1;P2;durP2;ratioP2
24008;SDS011;12217;50.792;4.372;2023-05-23T00:02:08;58.60;;;31.92;;
24008;SDS011;12217;50.792;4.372;2023-05-23T00:04:37;55.45;;;31.08;;
24008;SDS011;12217;50.792;4.372;2023-05-23T00:07:03;56.45;;;31.90;;
24008;SDS011;12217;50.792;4.372;2023-05-23T00:09:28;57.45;;;32.22;;
24008;SDS011;12217;50.792;4.372;2023-05-23T00:11:54;55.40;;;31.88;;
24008;SDS011;12217;50.792;4.372;2023-05-23T00:14:21;61.85;;;33.15;;
24008;SDS011;12217;50.792;4.372;2023-05-23T00:16:47;65.40;;;34.65;;
24008;SDS011;12217;50.792;4.372;2023-05-23T00:19:13;62.83;;;34.03;;
24008;SDS011;12217;50.792;4.372;2023-05-23T00:21:40;62.63;;;34.40;;
24008;SDS011;12217;50.792;4.372;2023-05-23T00:24:16;68.38;;;35.15;;
24008;SDS011;12217;50.792;4.372;2023-05-23T00:26:44;63.20;;;34.38;;
24008;SDS011;12217;50.792;4.372;2023-05-23T00:29:11;58.42;;;33.05;;
24008;SDS011;12217;50.792;4.372;2023-05-23T00:31:40;62.45;;;35.78;;
24008;SDS011;12217;50.792;4.372;2023-05-23T00:34:10;59.17;;;32.88;;
24008;SDS011;12217;50.792;4.372;2023-05-23T00:36:43;66.28;;;34.25;;
24008;SDS011;12217;50.792;4.372;2023-05-23T00:39:11;59.00;;;33.85;;
24008;SDS011;12217;50.792;4.372;2023-05-23T00:41:45;60.88;;;33.38;;
24008;SDS011;12217;50.792;4.372;2023-05-23T00:44:11;57.15;;;32.08;;
24008;SDS011;12217;50.792;4.372;2023-05-23T00:46:37;60.38;;;33.60;;
24008;SDS011;12217;50.792;4.372;2023-05-23T00:49:03;58.30;;;31.77;;
24008;SDS011;12217;50.792;4.372;2023-05-23T00:51:28;56.42;;;31.75;;
24008;SDS011;12217;50.792;4.372;2023-05-23T00:53:55;56.35;;;31.30;;
24008;SDS011;12217;50.792;4.372;2023-05-23T00:56:23;50.15;;;30.17;;
24008;SDS011;12217;50.792;4.372;2023-05-23T00:58:50;50.40;;;30.35;;
24008;SDS011;12217;50.792;4.372;2023-05-23T01:01:17;52.83;;;30.60;;
24008;SDS011;12217;50.792;4.372;2023-05-23T01:03:43;50.80;;;28.92;;
24008;SDS011;12217;50.792;4.372;2023-05-23T01:06:09;48.75;;;28.63;;
24008;SDS011;12217;50.792;4.372;2023-05-23T01:08:35;53.65;;;30.60;;
24008;SDS011;12217;50.792;4.372;2023-05-23T01:11:03;50.42;;;29.50;;
24008;SDS011;12217;50.792;4.372;2023-05-23T01:16:10;49.38;;;28.83;;
24008;SDS011;12217;50.792;4.372;2023-05-23T01:18:52;50.63;;;29.33;;
24008;SDS011;12217;50.792;4.372;2023-05-23T01:21:34;53.90;;;31.40;;
24008;SDS011;12217;50.792;4.372;2023-05-23T01:24:04;58.40;;;34.50;;
24008;SDS011;12217;50.792;4.372;2023-05-23T01:29:42;55.22;;;33.00;;
24008;SDS011;12217;50.792;4.372;2023-05-23T01:32:11;68.30;;;35.28;;
24008;SDS011;12217;50.792;4.372;2023-05-23T01:34:38;63.83;;;35.55;;
24008;SDS011;12217;50.792;4.372;2023-05-23T01:37:08;68.80;;;36.25;;
24008;SDS011;12217;50.792;4.372;2023-05-23T01:39:35;64.25;;;35.95;;
24008;SDS011;12217;50.792;4.372;2023-05-23T01:42:02;57.05;;;34.38;;
24008;SDS011;12217;50.792;4.372;2023-05-23T01:44:28;63.35;;;34.05;;
24008;SDS011;12217;50.792;4.372;2023-05-23T01:46:54;54.30;;;32.83;;
24008;SDS011;12217;50.792;4.372;2023-05-23T01:49:20;54.55;;;31.88;;
24008;SDS011;12217;50.792;4.372;2023-05-23T01:51:47;51.95;;;31.33;;
24008;SDS011;12217;50.792;4.372;2023-05-23T01:54:13;51.22;;;31.02;;
24008;SDS011;12217;50.792;4.372;2023-05-23T01:56:41;54.05;;;30.40;;
24008;SDS011;12217;50.792;4.372;2023-05-23T01:59:07;56.00;;;30.58;;
24008;SDS011;12217;50.792;4.372;2023-05-23T02:01:33;50.85;;;29.65;;
24008;SDS011;12217;50.792;4.372;2023-05-23T02:03:59;46.75;;;29.50;;
24008;SDS011;12217;50.792;4.372;2023-05-23T02:06:25;47.03;;;29.30;;
24008;SDS011;12217;50.792;4.372;2023-05-23T02:08:50;47.45;;;28.73;;
24008;SDS011;12217;50.792;4.372;2023-05-23T02:11:16;49.35;;;28.33;;
24008;SDS011;12217;50.792;4.372;2023-05-23T02:13:42;51.22;;;29.83;;
24008;SDS011;12217;50.792;4.372;2023-05-23T02:16:07;48.28;;;28.58;;
24008;SDS011;12217;50.792;4.372;2023-05-23T02:18:33;45.78;;;28.33;;
24008;SDS011;12217;50.792;4.372;2023-05-23T02:21:02;44.47;;;28.17;;
24008;SDS011;12217;50.792;4.372;2023-05-23T02:23:29;44.65;;;28.75;;
24008;SDS011;12217;50.792;4.372;2023-05-23T02:25:56;47.53;;;29.17;;
24008;SDS011;12217;50.792;4.372;2023-05-23T02:28:21;47.63;;;28.67;;
24008;SDS011;12217;50.792;4.372;2023-05-23T02:30:47;43.42;;;28.95;;
24008;SDS011;12217;50.792;4.372;2023-05-23T02:33:12;43.55;;;29.02;;
24008;SDS011;12217;50.792;4.372;2023-05-23T02:35:38;43.95;;;27.75;;
24008;SDS011;12217;50.792;4.372;2023-05-23T02:38:04;49.75;;;28.58;;
24008;SDS011;12217;50.792;4.372;2023-05-23T02:40:30;39.65;;;28.85;;
24008;SDS011;12217;50.792;4.372;2023-05-23T02:42:55;43.85;;;27.63;;
24008;SDS011;12217;50.792;4.372;2023-05-23T02:45:21;41.80;;;26.92;;
24008;SDS011;12217;50.792;4.372;2023-05-23T02:47:47;39.83;;;26.25;;
24008;SDS011;12217;50.792;4.372;2023-05-23T02:50:13;38.80;;;25.48;;
24008;SDS011;12217;50.792;4.372;2023-05-23T02:52:39;38.05;;;23.73;;
24008;SDS011;12217;50.792;4.372;2023-05-23T02:55:06;34.28;;;23.50;;
24008;SDS011;12217;50.792;4.372;2023-05-23T02:57:32;33.05;;;22.73;;
24008;SDS011;12217;50.792;4.372;2023-05-23T02:59:58;32.72;;;21.55;;
24008;SDS011;12217;50.792;4.372;2023-05-23T03:02:23;34.33;;;20.85;;
24008;SDS011;12217;50.792;4.372;2023-05-23T03:04:49;28.50;;;19.67;;
24008;SDS011;12217;50.792;4.372;2023-05-23T03:07:15;27.35;;;18.45;;
24008;SDS011;12217;50.792;4.372;2023-05-23T03:09:41;29.58;;;19.52;;
24008;SDS011;12217;50.792;4.372;2023-05-23T03:12:06;28.92;;;19.08;;
24008;SDS011;12217;50.792;4.372;2023-05-23T03:14:32;34.17;;;21.50;;
24008;SDS011;12217;50.792;4.372;2023-05-23T03:16:58;29.13;;;21.25;;
24008;SDS011;12217;50.792;4.372;2023-05-23T03:19:24;28.35;;;20.60;;
24008;SDS011;12217;50.792;4.372;2023-05-23T03:21:50;31.00;;;20.23;;
24008;SDS011;12217;50.792;4.372;2023-05-23T03:24:16;28.20;;;20.83;;
24008;SDS011;12217;50.792;4.372;2023-05-23T03:26:42;33.65;;;21.65;;
24008;SDS011;12217;50.792;4.372;2023-05-23T03:29:07;34.58;;;22.80;;
24008;SDS011;12217;50.792;4.372;2023-05-23T03:31:34;36.05;;;22.05;;
24008;SDS011;12217;50.792;4.372;2023-05-23T03:34:01;35.00;;;23.75;;
24008;SDS011;12217;50.792;4.372;2023-05-23T03:36:27;34.88;;;24.17;;
24008;SDS011;12217;50.792;4.372;2023-05-23T03:38:52;38.92;;;25.67;;
24008;SDS011;12217;50.792;4.372;2023-05-23T03:41:18;35.83;;;25.58;;
24008;SDS011;12217;50.792;4.372;2023-05-23T03:43:44;40.17;;;24.85;;
24008;SDS011;12217;50.792;4.372;2023-05-23T03:46:09;44.05;;;27.70;;
24008;SDS011;12217;50.792;4.372;2023-05-23T03:48:35;47.17;;;28.48;;
24008;SDS011;12217;50.792;4.372;2023-05-23T03:51:01;45.58;;;26.95;;
24008;SDS011;12217;50.792;4.372;2023-05-23T03:53:27;47.03;;;31.00;;
24008;SDS011;12217;50.792;4.372;2023-05-23T03:55:53;46.25;;;31.25;;
24008;SDS011;12217;50.792;4.372;2023-05-23T03:58:19;49.95;;;31.60;;
24008;SDS011;12217;50.792;4.372;2023-05-23T04:00:45;48.70;;;30.40;;
24008;SDS011;12217;50.792;4.372;2023-05-23T04:03:11;53.45;;;35.28;;
24008;SDS011;12217;50.792;4.372;2023-05-23T04:05:39;51.70;;;34.35;;
24008;SDS011;12217;50.792;4.372;2023-05-23T04:08:05;53.00;;;33.35;;
24008;SDS011;12217;50.792;4.372;2023-05-23T04:10:31;53.95;;;34.40;;
24008;SDS011;12217;50.792;4.372;2023-05-23T04:12:56;51.85;;;32.95;;
24008;SDS011;12217;50.792;4.372;2023-05-23T04:15:22;54.15;;;34.67;;
24008;SDS011;12217;50.792;4.372;2023-05-23T04:17:48;51.72;;;35.13;;
24008;SDS011;12217;50.792;4.372;2023-05-23T04:20:15;52.53;;;34.60;;
24008;SDS011;12217;50.792;4.372;2023-05-23T04:22:41;53.85;;;33.42;;
24008;SDS011;12217;50.792;4.372;2023-05-23T04:25:06;39.65;;;29.15;;
24008;SDS011;12217;50.792;4.372;2023-05-23T04:27:33;40.28;;;27.83;;
24008;SDS011;12217;50.792;4.372;2023-05-23T04:29:59;37.90;;;27.13;;
24008;SDS011;12217;50.792;4.372;2023-05-23T04:32:25;40.88;;;26.88;;
24008;SDS011;12217;50.792;4.372;2023-05-23T04:34:51;32.22;;;23.98;;
24008;SDS011;12217;50.792;4.372;2023-05-23T04:37:18;33.10;;;22.73;;
24008;SDS011;12217;50.792;4.372;2023-05-23T04:39:50;29.27;;;21.63;;
24008;SDS011;12217;50.792;4.372;2023-05-23T04:42:17;30.83;;;20.85;;
24008;SDS011;12217;50.792;4.372;2023-05-23T04:44:42;29.65;;;18.48;;
24008;SDS011;12217;50.792;4.372;2023-05-23T04:47:08;27.50;;;18.27;;
24008;SDS011;12217;50.792;4.372;2023-05-23T04:49:34;23.92;;;18.42;;
24008;SDS011;12217;50.792;4.372;2023-05-23T04:52:01;28.38;;;17.88;;
24008;SDS011;12217;50.792;4.372;2023-05-23T04:54:27;23.05;;;17.05;;
24008;SDS011;12217;50.792;4.372;2023-05-23T04:56:52;22.13;;;16.52;;
24008;SDS011;12217;50.792;4.372;2023-05-23T04:59:18;22.92;;;16.08;;
24008;SDS011;12217;50.792;4.372;2023-05-23T05:01:43;21.67;;;16.77;;
24008;SDS011;12217;50.792;4.372;2023-05-23T05:04:09;21.58;;;15.55;;
24008;SDS011;12217;50.792;4.372;2023-05-23T05:06:35;25.00;;;15.48;;
24008;SDS011;12217;50.792;4.372;2023-05-23T05:09:00;20.70;;;15.70;;
24008;SDS011;12217;50.792;4.372;2023-05-23T05:11:26;20.90;;;16.00;;
24008;SDS011;12217;50.792;4.372;2023-05-23T05:13:52;24.98;;;17.60;;
24008;SDS011;12217;50.792;4.372;2023-05-23T05:16:18;25.90;;;18.58;;
24008;SDS011;12217;50.792;4.372;2023-05-23T05:18:43;27.30;;;18.38;;
24008;SDS011;12217;50.792;4.372;2023-05-23T05:21:09;28.50;;;20.85;;
24008;SDS011;12217;50.792;4.372;2023-05-23T05:23:35;34.92;;;23.20;;
24008;SDS011;12217;50.792;4.372;2023-05-23T05:26:02;35.88;;;25.58;;
24008;SDS011;12217;50.792;4.372;2023-05-23T05:28:29;34.13;;;25.05;;
24008;SDS011;12217;50.792;4.372;2023-05-23T05:30:54;37.45;;;25.05;;
24008;SDS011;12217;50.792;4.372;2023-05-23T05:33:22;35.05;;;23.88;;
24008;SDS011;12217;50.792;4.372;2023-05-23T05:35:48;32.83;;;24.05;;
24008;SDS011;12217;50.792;4.372;2023-05-23T05:38:17;33.28;;;22.67;;
24008;SDS011;12217;50.792;4.372;2023-05-23T05:40:43;33.63;;;23.27;;
24008;SDS011;12217;50.792;4.372;2023-05-23T05:43:10;31.02;;;22.52;;
24008;SDS011;12217;50.792;4.372;2023-05-23T05:45:39;28.92;;;20.30;;
24008;SDS011;12217;50.792;4.372;2023-05-23T05:48:04;28.58;;;18.98;;
24008;SDS011;12217;50.792;4.372;2023-05-23T05:50:30;32.97;;;18.88;;
24008;SDS011;12217;50.792;4.372;2023-05-23T05:52:56;28.73;;;18.20;;
24008;SDS011;12217;50.792;4.372;2023-05-23T05:55:21;30.27;;;17.25;;
24008;SDS011;12217;50.792;4.372;2023-05-23T05:57:47;27.38;;;17.48;;
24008;SDS011;12217;50.792;4.372;2023-05-23T06:00:13;30.67;;;17.92;;
24008;SDS011;12217;50.792;4.372;2023-05-23T06:02:42;33.88;;;18.27;;
24008;SDS011;12217;50.792;4.372;2023-05-23T06:05:09;30.83;;;18.65;;
24008;SDS011;12217;50.792;4.372;2023-05-23T06:07:40;35.83;;;17.33;;
24008;SDS011;12217;50.792;4.372;2023-05-23T06:10:06;34.70;;;16.60;;
24008;SDS011;12217;50.792;4.372;2023-05-23T06:12:33;40.58;;;17.35;;
24008;SDS011;12217;50.792;4.372;2023-05-23T06:14:59;31.65;;;16.88;;
24008;SDS011;12217;50.792;4.372;2023-05-23T06:17:26;36.45;;;16.88;;
24008;SDS011;12217;50.792;4.372;2023-05-23T06:19:52;39.53;;;17.58;;
24008;SDS011;12217;50.792;4.372;2023-05-23T06:22:17;38.97;;;16.65;;
24008;SDS011;12217;50.792;4.372;2023-05-23T06:24:43;34.83;;;17.67;;
24008;SDS011;12217;50.792;4.372;2023-05-23T06:27:09;35.60;;;18.25;;
24008;SDS011;12217;50.792;4.372;2023-05-23T06:29:37;36.47;;;17.58;;
24008;SDS011;12217;50.792;4.372;2023-05-23T06:32:03;42.45;;;17.42;;
24008;SDS011;12217;50.792;4.372;2023-05-23T06:34:29;31.42;;;16.58;;
24008;SDS011;12217;50.792;4.372;2023-05-23T06:36:55;38.97;;;18.20;;
24008;SDS011;12217;50.792;4.372;2023-05-23T06:39:20;39.00;;;17.45;;
24008;SDS011;12217;50.792;4.372;2023-05-23T06:41:46;37.50;;;17.33;;
24008;SDS011;12217;50.792;4.372;2023-05-23T06:44:12;41.53;;;18.23;;
24008;SDS011;12217;50.792;4.372;2023-05-23T06:46:38;37.65;;;18.00;;
24008;SDS011;12217;50.792;4.372;2023-05-23T06:49:07;34.35;;;16.85;;
24008;SDS011;12217;50.792;4.372;2023-05-23T06:51:32;37.28;;;17.73;;
24008;SDS011;12217;50.792;4.372;2023-05-23T06:53:58;29.27;;;16.55;;
24008;SDS011;12217;50.792;4.372;2023-05-23T06:56:23;39.22;;;16.88;;
24008;SDS011;12217;50.792;4.372;2023-05-23T06:58:50;33.92;;;17.23;;
24008;SDS011;12217;50.792;4.372;2023-05-23T07:01:15;32.83;;;16.70;;
24008;SDS011;12217;50.792;4.372;2023-05-23T07:03:41;31.73;;;16.30;;
24008;SDS011;12217;50.792;4.372;2023-05-23T07:06:09;37.97;;;18.00;;
24008;SDS011;12217;50.792;4.372;2023-05-23T07:08:35;27.70;;;17.15;;
24008;SDS011;12217;50.792;4.372;2023-05-23T07:11:02;26.52;;;15.48;;
24008;SDS011;12217;50.792;4.372;2023-05-23T07:13:28;28.90;;;15.30;;
24008;SDS011;12217;50.792;4.372;2023-05-23T07:15:55;25.35;;;15.60;;
24008;SDS011;12217;50.792;4.372;2023-05-23T07:18:20;23.55;;;14.13;;
24008;SDS011;12217;50.792;4.372;2023-05-23T07:20:47;21.30;;;13.25;;
24008;SDS011;12217;50.792;4.372;2023-05-23T07:23:12;22.88;;;13.85;;
24008;SDS011;12217;50.792;4.372;2023-05-23T07:25:38;23.40;;;14.27;;
24008;SDS011;12217;50.792;4.372;2023-05-23T07:28:06;25.17;;;12.65;;
24008;SDS011;12217;50.792;4.372;2023-05-23T07:30:32;24.15;;;12.00;;
24008;SDS011;12217;50.792;4.372;2023-05-23T07:32:58;22.75;;;11.65;;
24008;SDS011;12217;50.792;4.372;2023-05-23T07:35:24;21.17;;;11.27;;
24008;SDS011;12217;50.792;4.372;2023-05-23T07:37:53;18.85;;;11.82;;
24008;SDS011;12217;50.792;4.372;2023-05-23T07:40:20;18.90;;;12.43;;
24008;SDS011;12217;50.792;4.372;2023-05-23T07:42:46;23.17;;;13.73;;
24008;SDS011;12217;50.792;4.372;2023-05-23T07:45:13;24.48;;;12.90;;
24008;SDS011;12217;50.792;4.372;2023-05-23T07:47:39;25.45;;;13.10;;
24008;SDS011;12217;50.792;4.372;2023-05-23T07:50:06;21.88;;;12.68;;
24008;SDS011;12217;50.792;4.372;2023-05-23T07:52:33;21.67;;;11.57;;
24008;SDS011;12217;50.792;4.372;2023-05-23T07:54:59;19.70;;;12.48;;
24008;SDS011;12217;50.792;4.372;2023-05-23T07:57:25;24.55;;;12.52;;
24008;SDS011;12217;50.792;4.372;2023-05-23T07:59:51;21.05;;;11.95;;
24008;SDS011;12217;50.792;4.372;2023-05-23T08:02:17;22.67;;;11.55;;
24008;SDS011;12217;50.792;4.372;2023-05-23T08:04:43;18.73;;;11.27;;
24008;SDS011;12217;50.792;4.372;2023-05-23T08:07:09;26.55;;;10.93;;
24008;SDS011;12217;50.792;4.372;2023-05-23T08:09:36;19.52;;;10.50;;
24008;SDS011;12217;50.792;4.372;2023-05-23T08:12:02;15.30;;;9.30;;
24008;SDS011;12217;50.792;4.372;2023-05-23T08:14:27;18.20;;;9.50;;
24008;SDS011;12217;50.792;4.372;2023-05-23T08:16:53;17.75;;;9.85;;
24008;SDS011;12217;50.792;4.372;2023-05-23T08:19:19;21.80;;;10.23;;
24008;SDS011;12217;50.792;4.372;2023-05-23T08:21:45;18.67;;;9.75;;
24008;SDS011;12217;50.792;4.372;2023-05-23T08:24:11;25.90;;;11.48;;
24008;SDS011;12217;50.792;4.372;2023-05-23T08:26:37;18.70;;;12.70;;
24008;SDS011;12217;50.792;4.372;2023-05-23T08:29:03;21.73;;;13.43;;
24008;SDS011;12217;50.792;4.372;2023-05-23T08:31:29;20.02;;;13.00;;
24008;SDS011;12217;50.792;4.372;2023-05-23T08:33:55;26.63;;;13.50;;
24008;SDS011;12217;50.792;4.372;2023-05-23T08:36:21;29.95;;;12.82;;
24008;SDS011;12217;50.792;4.372;2023-05-23T08:38:48;23.45;;;14.05;;
24008;SDS011;12217;50.792;4.372;2023-05-23T08:41:17;21.75;;;12.85;;
24008;SDS011;12217;50.792;4.372;2023-05-23T08:43:44;23.13;;;12.20;;
24008;SDS011;12217;50.792;4.372;2023-05-23T08:46:11;22.48;;;11.55;;
24008;SDS011;12217;50.792;4.372;2023-05-23T08:48:37;19.67;;;11.10;;
24008;SDS011;12217;50.792;4.372;2023-05-23T08:51:03;22.30;;;10.70;;
24008;SDS011;12217;50.792;4.372;2023-05-23T08:53:30;21.83;;;12.13;;
24008;SDS011;12217;50.792;4.372;2023-05-23T08:55:59;23.15;;;12.52;;
24008;SDS011;12217;50.792;4.372;2023-05-23T08:58:29;19.52;;;12.15;;
24008;SDS011;12217;50.792;4.372;2023-05-23T09:00:56;18.70;;;11.27;;
24008;SDS011;12217;50.792;4.372;2023-05-23T09:03:25;18.70;;;11.45;;
24008;SDS011;12217;50.792;4.372;2023-05-23T09:05:54;21.30;;;11.48;;
24008;SDS011;12217;50.792;4.372;2023-05-23T09:08:20;20.75;;;10.73;;
24008;SDS011;12217;50.792;4.372;2023-05-23T09:10:49;22.15;;;10.77;;
24008;SDS011;12217;50.792;4.372;2023-05-23T09:13:15;20.50;;;10.32;;
24008;SDS011;12217;50.792;4.372;2023-05-23T09:18:32;20.27;;;10.20;;
24008;SDS011;12217;50.792;4.372;2023-05-23T09:21:03;20.03;;;11.03;;
24008;SDS011;12217;50.792;4.372;2023-05-23T09:23:32;17.35;;;9.48;;
24008;SDS011;12217;50.792;4.372;2023-05-23T09:26:02;18.45;;;10.32;;
24008;SDS011;12217;50.792;4.372;2023-05-23T09:28:33;20.55;;;12.23;;
24008;SDS011;12217;50.792;4.372;2023-05-23T09:31:03;24.45;;;13.80;;
24008;SDS011;12217;50.792;4.372;2023-05-23T09:33:34;20.25;;;12.57;;
24008;SDS011;12217;50.792;4.372;2023-05-23T09:36:14;21.05;;;12.88;;
24008;SDS011;12217;50.792;4.372;2023-05-23T09:38:41;22.08;;;12.13;;
24008;SDS011;12217;50.792;4.372;2023-05-23T09:41:08;19.90;;;11.30;;
24008;SDS011;12217;50.792;4.372;2023-05-23T09:43:36;20.88;;;11.20;;
24008;SDS011;12217;50.792;4.372;2023-05-23T09:46:07;17.90;;;10.68;;
24008;SDS011;12217;50.792;4.372;2023-05-23T09:51:05;20.42;;;10.85;;
24008;SDS011;12217;50.792;4.372;2023-05-23T09:53:33;22.33;;;11.75;;
24008;SDS011;12217;50.792;4.372;2023-05-23T09:55:59;19.38;;;11.30;;
24008;SDS011;12217;50.792;4.372;2023-05-23T09:58:26;18.67;;;11.18;;
24008;SDS011;12217;50.792;4.372;2023-05-23T10:00:54;16.55;;;11.88;;
24008;SDS011;12217;50.792;4.372;2023-05-23T10:03:23;18.90;;;11.55;;
24008;SDS011;12217;50.792;4.372;2023-05-23T10:05:56;19.60;;;12.52;;
24008;SDS011;12217;50.792;4.372;2023-05-23T10:08:44;19.92;;;12.05;;
24008;SDS011;12217;50.792;4.372;2023-05-23T10:13:44;20.55;;;11.52;;
24008;SDS011;12217;50.792;4.372;2023-05-23T10:16:20;20.88;;;12.40;;
24008;SDS011;12217;50.792;4.372;2023-05-23T10:19:09;22.60;;;11.93;;
24008;SDS011;12217;50.792;4.372;2023-05-23T10:21:43;17.15;;;10.95;;
24008;SDS011;12217;50.792;4.372;2023-05-23T10:24:14;20.23;;;11.63;;
24008;SDS011;12217;50.792;4.372;2023-05-23T10:26:42;16.10;;;9.93;;
24008;SDS011;12217;50.792;4.372;2023-05-23T10:29:10;20.95;;;9.32;;
24008;SDS011;12217;50.792;4.372;2023-05-23T10:31:35;13.77;;;8.25;;
24008;SDS011;12217;50.792;4.372;2023-05-23T10:34:07;14.63;;;7.68;;
24008;SDS011;12217;50.792;4.372;2023-05-23T10:36:39;12.05;;;8.05;;
24008;SDS011;12217;50.792;4.372;2023-05-23T10:39:27;14.57;;;7.78;;
24008;SDS011;12217;50.792;4.372;2023-05-23T10:44:46;11.63;;;7.68;;
24008;SDS011;12217;50.792;4.372;2023-05-23T10:47:11;8.70;;;6.68;;
24008;SDS011;12217;50.792;4.372;2023-05-23T10:49:54;10.15;;;6.45;;
24008;SDS011;12217;50.792;4.372;2023-05-23T10:52:23;10.45;;;5.45;;
24008;SDS011;12217;50.792;4.372;2023-05-23T10:54:53;13.43;;;5.63;;
24008;SDS011;12217;50.792;4.372;2023-05-23T10:57:26;12.52;;;6.07;;
24008;SDS011;12217;50.792;4.372;2023-05-23T11:02:26;7.78;;;6.00;;
24008;SDS011;12217;50.792;4.372;2023-05-23T11:07:46;9.63;;;6.45;;
24008;SDS011;12217;50.792;4.372;2023-05-23T11:10:51;12.75;;;5.80;;
24008;SDS011;12217;50.792;4.372;2023-05-23T11:13:25;35.40;;;28.00;;
24008;SDS011;12217;50.792;4.372;2023-05-23T11:16:40;10.02;;;4.78;;
24008;SDS011;12217;50.792;4.372;2023-05-23T11:19:31;8.27;;;4.45;;
24008;SDS011;12217;50.792;4.372;2023-05-23T11:22:00;8.15;;;4.13;;
24008;SDS011;12217;50.792;4.372;2023-05-23T11:27:15;8.90;;;4.05;;
24008;SDS011;12217;50.792;4.372;2023-05-23T11:29:44;8.77;;;4.22;;
24008;SDS011;12217;50.792;4.372;2023-05-23T11:32:24;10.48;;;5.93;;
24008;SDS011;12217;50.792;4.372;2023-05-23T11:34:58;10.77;;;5.20;;
24008;SDS011;12217;50.792;4.372;2023-05-23T11:37:28;35.50;;;25.45;;
24008;SDS011;12217;50.792;4.372;2023-05-23T11:39:55;19.08;;;12.18;;
24008;SDS011;12217;50.792;4.372;2023-05-23T11:42:21;12.80;;;5.40;;
24008;SDS011;12217;50.792;4.372;2023-05-23T11:44:50;8.85;;;4.72;;
24008;SDS011;12217;50.792;4.372;2023-05-23T11:47:16;9.35;;;5.25;;
24008;SDS011;12217;50.792;4.372;2023-05-23T11:49:46;9.98;;;5.07;;
24008;SDS011;12217;50.792;4.372;2023-05-23T11:52:12;11.20;;;5.18;;
24008;SDS011;12217;50.792;4.372;2023-05-23T11:54:39;11.95;;;4.53;;
24008;SDS011;12217;50.792;4.372;2023-05-23T11:57:09;10.48;;;4.50;;
24008;SDS011;12217;50.792;4.372;2023-05-23T11:59:35;12.13;;;4.95;;
24008;SDS011;12217;50.792;4.372;2023-05-23T12:02:01;10.93;;;5.47;;
24008;SDS011;12217;50.792;4.372;2023-05-23T12:04:27;14.75;;;5.05;;
24008;SDS011;12217;50.792;4.372;2023-05-23T12:06:53;11.82;;;4.65;;
24008;SDS011;12217;50.792;4.372;2023-05-23T12:09:19;13.70;;;5.28;;
24008;SDS011;12217;50.792;4.372;2023-05-23T12:11:45;16.08;;;5.05;;
24008;SDS011;12217;50.792;4.372;2023-05-23T12:14:13;12.98;;;4.90;;
24008;SDS011;12217;50.792;4.372;2023-05-23T12:16:42;21.70;;;5.65;;
24008;SDS011;12217;50.792;4.372;2023-05-23T12:19:09;16.58;;;4.70;;
24008;SDS011;12217;50.792;4.372;2023-05-23T12:24:11;19.08;;;4.63;;
24008;SDS011;12217;50.792;4.372;2023-05-23T12:26:54;12.57;;;4.93;;
24008;SDS011;12217;50.792;4.372;2023-05-23T12:31:57;16.48;;;4.28;;
24008;SDS011;12217;50.792;4.372;2023-05-23T12:34:23;13.77;;;4.32;;
24008;SDS011;12217;50.792;4.372;2023-05-23T12:36:49;10.30;;;4.45;;
24008;SDS011;12217;50.792;4.372;2023-05-23T12:39:22;14.70;;;4.13;;
24008;SDS011;12217;50.792;4.372;2023-05-23T12:41:52;14.10;;;4.18;;
24008;SDS011;12217;50.792;4.372;2023-05-23T12:44:20;14.40;;;4.72;;
24008;SDS011;12217;50.792;4.372;2023-05-23T12:46:46;16.67;;;4.47;;
24008;SDS011;12217;50.792;4.372;2023-05-23T12:49:12;13.55;;;4.25;;
24008;SDS011;12217;50.792;4.372;2023-05-23T12:51:38;15.45;;;4.88;;
24008;SDS011;12217;50.792;4.372;2023-05-23T12:54:04;18.20;;;4.95;;
24008;SDS011;12217;50.792;4.372;2023-05-23T12:56:30;59.33;;;41.13;;
24008;SDS011;12217;50.792;4.372;2023-05-23T12:58:56;16.63;;;7.13;;
24008;SDS011;12217;50.792;4.372;2023-05-23T13:01:21;14.48;;;4.60;;
24008;SDS011;12217;50.792;4.372;2023-05-23T13:03:48;15.95;;;5.53;;
24008;SDS011;12217;50.792;4.372;2023-05-23T13:06:13;16.38;;;5.28;;
24008;SDS011;12217;50.792;4.372;2023-05-23T13:08:39;16.55;;;5.03;;
24008;SDS011;12217;50.792;4.372;2023-05-23T13:11:05;14.05;;;4.68;;
24008;SDS011;12217;50.792;4.372;2023-05-23T13:13:31;15.55;;;4.97;;
24008;SDS011;12217;50.792;4.372;2023-05-23T13:15:57;14.65;;;4.53;;
24008;SDS011;12217;50.792;4.372;2023-05-23T13:18:23;17.50;;;4.60;;
24008;SDS011;12217;50.792;4.372;2023-05-23T13:20:48;16.98;;;5.43;;
24008;SDS011;12217;50.792;4.372;2023-05-23T13:23:15;12.55;;;5.45;;
24008;SDS011;12217;50.792;4.372;2023-05-23T13:25:40;17.08;;;5.55;;
24008;SDS011;12217;50.792;4.372;2023-05-23T13:28:06;14.50;;;4.97;;
24008;SDS011;12217;50.792;4.372;2023-05-23T13:30:33;18.42;;;4.95;;
24008;SDS011;12217;50.792;4.372;2023-05-23T13:32:58;19.05;;;4.80;;
24008;SDS011;12217;50.792;4.372;2023-05-23T13:35:24;14.00;;;4.65;;
24008;SDS011;12217;50.792;4.372;2023-05-23T13:37:50;16.88;;;5.20;;
24008;SDS011;12217;50.792;4.372;2023-05-23T13:40:16;13.95;;;4.47;;
24008;SDS011;12217;50.792;4.372;2023-05-23T13:42:43;18.52;;;4.45;;
24008;SDS011;12217;50.792;4.372;2023-05-23T13:45:10;15.48;;;5.07;;
24008;SDS011;12217;50.792;4.372;2023-05-23T13:47:36;15.15;;;5.50;;
24008;SDS011;12217;50.792;4.372;2023-05-23T13:50:02;18.92;;;4.82;;
24008;SDS011;12217;50.792;4.372;2023-05-23T13:52:28;18.17;;;5.15;;
24008;SDS011;12217;50.792;4.372;2023-05-23T13:54:54;16.33;;;4.60;;
24008;SDS011;12217;50.792;4.372;2023-05-23T13:57:20;17.77;;;5.25;;
24008;SDS011;12217;50.792;4.372;2023-05-23T13:59:46;16.23;;;5.47;;
24008;SDS011;12217;50.792;4.372;2023-05-23T14:02:11;14.52;;;5.03;;
24008;SDS011;12217;50.792;4.372;2023-05-23T14:04:37;13.65;;;4.70;;
24008;SDS011;12217;50.792;4.372;2023-05-23T14:07:02;17.15;;;5.10;;
24008;SDS011;12217;50.792;4.372;2023-05-23T14:09:28;16.45;;;4.80;;
24008;SDS011;12217;50.792;4.372;2023-05-23T14:11:54;16.77;;;5.07;;
24008;SDS011;12217;50.792;4.372;2023-05-23T14:14:19;12.55;;;4.53;;
24008;SDS011;12217;50.792;4.372;2023-05-23T14:16:45;14.57;;;4.93;;
24008;SDS011;12217;50.792;4.372;2023-05-23T14:19:11;16.27;;;4.45;;
24008;SDS011;12217;50.792;4.372;2023-05-23T14:21:36;15.77;;;4.05;;
24008;SDS011;12217;50.792;4.372;2023-05-23T14:24:02;15.45;;;4.80;;
24008;SDS011;12217;50.792;4.372;2023-05-23T14:26:28;15.93;;;4.80;;
24008;SDS011;12217;50.792;4.372;2023-05-23T14:28:54;16.45;;;4.53;;
24008;SDS011;12217;50.792;4.372;2023-05-23T14:31:19;12.90;;;4.75;;
24008;SDS011;12217;50.792;4.372;2023-05-23T14:33:46;15.60;;;4.85;;
24008;SDS011;12217;50.792;4.372;2023-05-23T14:36:13;12.18;;;4.03;;
24008;SDS011;12217;50.792;4.372;2023-05-23T14:38:39;17.33;;;4.55;;
24008;SDS011;12217;50.792;4.372;2023-05-23T14:41:08;13.63;;;3.90;;
24008;SDS011;12217;50.792;4.372;2023-05-23T14:43:37;14.07;;;4.43;;
24008;SDS011;12217;50.792;4.372;2023-05-23T14:46:18;15.02;;;4.50;;
24008;SDS011;12217;50.792;4.372;2023-05-23T14:48:52;16.17;;;4.32;;
24008;SDS011;12217;50.792;4.372;2023-05-23T14:51:19;13.32;;;4.15;;
24008;SDS011;12217;50.792;4.372;2023-05-23T14:53:45;13.32;;;3.95;;
24008;SDS011;12217;50.792;4.372;2023-05-23T14:56:36;14.15;;;3.95;;
24008;SDS011;12217;50.792;4.372;2023-05-23T14:59:03;20.48;;;4.63;;